createdAt,value
2018-04-14T00:00:15.781Z,81.40
2018-04-14T00:01:15.785Z,82.07
2018-04-14T00:02:15.797Z,83.01
2018-04-14T00:03:15.803Z,83.20
2018-04-14T00:04:15.811Z,83.15
2018-04-14T00:05:15.817Z,82.87
2018-04-14T00:06:15.834Z,82.10
2018-04-14T00:07:15.834Z,83.44
2018-04-14T00:08:15.845Z,82.87
2018-04-14T00:09:15.850Z,83.06
2018-04-14T00:10:15.859Z,83.49
2018-04-14T00:11:15.892Z,82.82
2018-04-14T00:12:15.882Z,82.07
2018-04-14T00:13:15.889Z,82.35
2018-04-14T00:14:15.894Z,82.26
2018-04-14T00:15:15.906Z,82.07
2018-04-14T00:16:15.907Z,82.35
2018-04-14T00:17:15.917Z,82.73
2018-04-14T00:18:15.929Z,82.82
2018-04-14T00:19:15.933Z,83.01
2018-04-14T00:20:15.944Z,83.20
2018-04-14T00:21:15.951Z,83.49
2018-04-14T00:22:15.958Z,83.39
2018-04-14T00:23:15.971Z,83.68
2018-04-14T00:24:15.981Z,82.92
2018-04-14T00:25:15.984Z,83.49
2018-04-14T00:26:16.011Z,83.20
2018-04-14T00:27:16.000Z,82.07
2018-04-14T00:28:16.007Z,82.26
2018-04-14T00:29:16.015Z,82.73
2018-04-14T00:30:16.032Z,82.26
2018-04-14T00:31:16.031Z,82.35
2018-04-14T00:32:16.043Z,82.54
2018-04-14T00:33:16.051Z,82.54
2018-04-14T00:34:16.055Z,82.26
2018-04-14T00:35:16.074Z,81.78
2018-04-14T00:36:16.072Z,82.64
2018-04-14T00:37:16.082Z,82.07
2018-04-14T00:38:16.089Z,81.78
2018-04-14T00:39:16.099Z,81.78
2018-04-14T00:40:16.110Z,81.40
2018-04-14T00:41:16.125Z,82.16
2018-04-14T00:42:16.121Z,82.26
2018-04-14T00:43:16.129Z,82.73
2018-04-14T00:44:16.134Z,83.59
2018-04-14T00:45:16.144Z,83.01
2018-04-14T00:46:16.152Z,82.82
2018-04-14T00:47:16.166Z,82.82
2018-04-14T00:48:16.170Z,83.39
2018-04-14T00:49:16.177Z,82.82
2018-04-14T00:50:16.185Z,82.16
2018-04-14T00:51:16.192Z,82.21
2018-04-14T00:52:16.200Z,82.82
2018-04-14T00:53:16.217Z,82.92
2018-04-14T00:54:16.215Z,82.07
2018-04-14T00:55:16.223Z,82.45
2018-04-14T00:56:16.234Z,82.73
2018-04-14T00:57:16.243Z,82.64
2018-04-14T00:58:16.249Z,82.16
2018-04-14T00:59:16.263Z,82.16
2018-04-14T01:00:16.268Z,82.54
2018-04-14T01:01:16.275Z,82.54
2018-04-14T01:02:16.283Z,82.82
2018-04-14T01:03:16.287Z,83.59
2018-04-14T01:04:16.299Z,83.30
2018-04-14T01:05:16.312Z,82.54
2018-04-14T01:06:16.316Z,82.16
2018-04-14T01:07:16.324Z,82.07
2018-04-14T01:08:16.332Z,82.54
2018-04-14T01:09:16.341Z,82.03
2018-04-14T01:10:16.345Z,82.97
2018-04-14T01:11:16.366Z,83.07
2018-04-14T01:12:16.365Z,82.78
2018-04-14T01:13:16.373Z,82.97
2018-04-14T01:14:16.385Z,82.88
2018-04-14T01:15:16.532Z,82.69
2018-04-14T01:16:16.394Z,82.78
2018-04-14T01:17:16.407Z,82.88
2018-04-14T01:18:16.413Z,82.88
2018-04-14T01:19:16.419Z,82.69
2018-04-14T01:20:16.426Z,82.78
2018-04-14T01:21:16.440Z,83.36
2018-04-14T01:22:16.442Z,83.73
2018-04-14T01:23:16.454Z,83.73
2018-04-14T01:24:16.469Z,83.64
2018-04-14T01:25:16.468Z,83.92
2018-04-14T01:26:16.477Z,84.11
2018-04-14T01:27:16.483Z,83.54
2018-04-14T01:28:16.490Z,84.11
2018-04-14T01:29:16.499Z,83.54
2018-04-14T01:30:16.514Z,82.88
2018-04-14T01:31:16.517Z,82.78
2018-04-14T01:32:16.544Z,82.40
2018-04-14T01:33:16.533Z,82.31
2018-04-14T01:34:16.540Z,82.69
2018-04-14T01:35:16.547Z,82.88
2018-04-14T01:36:16.562Z,83.45
2018-04-14T01:37:16.560Z,82.88
2018-04-14T01:38:16.569Z,82.59
2018-04-14T01:39:16.578Z,82.69
2018-04-14T01:40:16.585Z,82.78
2018-04-14T01:41:16.603Z,82.03
2018-04-14T01:42:16.612Z,83.26
2018-04-14T01:43:16.610Z,82.50
2018-04-14T01:44:16.617Z,82.21
2018-04-14T01:45:16.625Z,82.21
2018-04-14T01:46:16.632Z,82.78
2018-04-14T01:47:16.640Z,83.26
2018-04-14T01:48:16.658Z,82.97
2018-04-14T01:49:16.656Z,82.59
2018-04-14T01:50:16.668Z,82.12
2018-04-14T01:51:16.673Z,82.12
2018-04-14T01:52:16.680Z,81.93
2018-04-14T01:53:16.688Z,82.69
2018-04-14T01:54:16.700Z,82.21
2018-04-14T01:55:16.704Z,82.69
2018-04-14T01:56:16.712Z,82.50
2018-04-14T01:57:16.720Z,82.78
2018-04-14T01:58:16.726Z,82.50
2018-04-14T01:59:16.733Z,82.78
2018-04-14T02:00:16.764Z,83.45
2018-04-14T02:01:16.752Z,82.97
2018-04-14T02:02:16.759Z,83.45
2018-04-14T02:03:16.766Z,83.92
2018-04-14T02:04:16.771Z,84.59
2018-04-14T02:05:16.781Z,84.87
2018-04-14T02:06:16.794Z,85.06
2018-04-14T02:07:16.797Z,85.25
2018-04-14T02:08:16.803Z,84.68
2018-04-14T02:09:16.822Z,84.49
2018-04-14T02:10:16.817Z,83.73
2018-04-14T02:11:16.823Z,83.83
2018-04-14T02:12:16.842Z,82.59
2018-04-14T02:13:16.843Z,82.78
2018-04-14T02:14:16.851Z,82.88
2018-04-14T02:15:16.859Z,82.21
2018-04-14T02:16:16.865Z,82.03
2018-04-14T02:17:16.872Z,82.12
2018-04-14T02:18:16.889Z,81.93
2018-04-14T02:19:16.887Z,81.84
2018-04-14T02:20:16.897Z,81.93
2018-04-14T02:21:16.903Z,82.59
2018-04-14T02:22:16.910Z,82.78
2018-04-14T02:23:16.918Z,82.78
2018-04-14T02:24:16.934Z,82.21
2018-04-14T02:25:16.933Z,82.88
2018-04-14T02:26:16.942Z,82.74
2018-04-14T02:27:16.948Z,83.50
2018-04-14T02:28:16.960Z,82.69
2018-04-14T02:29:16.966Z,82.88
2018-04-14T02:30:16.971Z,82.59
2018-04-14T02:31:16.982Z,82.40
2018-04-14T02:32:16.995Z,82.59
2018-04-14T02:33:16.998Z,82.84
2018-04-14T02:34:17.002Z,82.36
2018-04-14T02:35:17.012Z,82.84
2018-04-14T02:36:17.022Z,83.03
2018-04-14T02:37:17.028Z,83.36
2018-04-14T02:38:17.040Z,84.21
2018-04-14T02:39:17.047Z,83.64
2018-04-14T02:40:17.049Z,83.92
2018-04-14T02:41:17.059Z,84.01
2018-04-14T02:42:17.063Z,83.07
2018-04-14T02:43:17.071Z,82.93
2018-04-14T02:44:17.079Z,82.74
2018-04-14T02:45:17.101Z,82.93
2018-04-14T02:46:17.094Z,83.31
2018-04-14T02:47:17.103Z,83.78
2018-04-14T02:48:17.125Z,84.07
2018-04-14T02:49:17.121Z,84.92
2018-04-14T02:50:17.125Z,84.17
2018-04-14T02:51:17.131Z,83.88
2018-04-14T02:52:17.188Z,84.26
2018-04-14T02:53:17.173Z,83.78
2018-04-14T02:54:17.156Z,83.88
2018-04-14T02:55:17.165Z,83.69
2018-04-14T02:56:17.169Z,83.78
2018-04-14T02:57:17.182Z,84.17
2018-04-14T02:58:17.187Z,82.84
2018-04-14T02:59:17.196Z,83.50
2018-04-14T03:00:17.201Z,83.03
2018-04-14T03:01:17.210Z,82.36
2018-04-14T03:02:17.214Z,83.31
2018-04-14T03:03:17.224Z,83.12
2018-04-14T03:04:17.231Z,82.84
2018-04-14T03:05:17.251Z,83.22
2018-04-14T03:06:17.248Z,82.74
2018-04-14T03:07:17.255Z,82.74
2018-04-14T03:08:17.262Z,83.97
2018-04-14T03:09:17.271Z,84.07
2018-04-14T03:10:17.279Z,83.59
2018-04-14T03:11:17.299Z,83.31
2018-04-14T03:12:17.292Z,83.59
2018-04-14T03:13:17.298Z,83.03
2018-04-14T03:14:17.303Z,83.59
2018-04-14T03:15:17.312Z,83.97
2018-04-14T03:16:17.321Z,83.78
2018-04-14T03:17:17.342Z,83.22
2018-04-14T03:18:17.335Z,83.78
2018-04-14T03:19:17.341Z,83.88
2018-04-14T03:20:17.354Z,84.26
2018-04-14T03:21:17.362Z,84.92
2018-04-14T03:22:17.364Z,84.26
2018-04-14T03:23:17.378Z,84.55
2018-04-14T03:24:17.381Z,84.55
2018-04-14T03:25:17.388Z,84.55
2018-04-14T03:26:17.393Z,84.92
2018-04-14T03:27:17.401Z,85.11
2018-04-14T03:28:17.413Z,84.45
2018-04-14T03:29:17.423Z,83.69
2018-04-14T03:30:17.425Z,83.40
2018-04-14T03:31:17.444Z,82.08
2018-04-14T03:32:17.439Z,82.65
2018-04-14T03:33:17.446Z,82.08
2018-04-14T03:34:17.455Z,82.17
2018-04-14T03:35:17.466Z,82.46
2018-04-14T03:36:17.469Z,82.65
2018-04-14T03:37:17.482Z,82.65
2018-04-14T03:38:17.481Z,82.55
2018-04-14T03:39:17.489Z,82.84
2018-04-14T03:40:17.499Z,83.78
2018-04-14T03:41:17.513Z,83.88
2018-04-14T03:42:17.515Z,82.89
2018-04-14T03:43:17.521Z,83.46
2018-04-14T03:44:17.530Z,83.65
2018-04-14T03:45:17.533Z,83.65
2018-04-14T03:46:17.542Z,82.98
2018-04-14T03:47:17.559Z,83.65
2018-04-14T03:48:17.557Z,83.69
2018-04-14T03:49:17.564Z,84.22
2018-04-14T03:50:17.570Z,84.83
2018-04-14T03:51:17.578Z,84.55
2018-04-14T03:52:17.584Z,83.65
2018-04-14T03:53:17.594Z,83.65
2018-04-14T03:54:17.598Z,83.27
2018-04-14T03:55:17.608Z,83.46
2018-04-14T03:56:17.615Z,84.31
2018-04-14T03:57:17.625Z,84.22
2018-04-14T03:58:17.630Z,84.12
2018-04-14T03:59:17.639Z,84.69
2018-04-14T04:00:17.644Z,84.41
2018-04-14T04:01:17.652Z,84.12
2018-04-14T04:02:17.660Z,84.22
2018-04-14T04:03:17.670Z,84.55
2018-04-14T04:04:17.677Z,84.64
2018-04-14T04:05:17.687Z,83.46
2018-04-14T04:06:17.686Z,83.97
2018-04-14T04:07:17.694Z,83.55
2018-04-14T04:08:17.703Z,83.46
2018-04-14T04:09:17.738Z,83.36
2018-04-14T04:10:17.719Z,83.65
2018-04-14T04:11:17.723Z,83.78
2018-04-14T04:12:17.740Z,84.74
2018-04-14T04:13:17.741Z,84.17
2018-04-14T04:14:17.747Z,83.69
2018-04-14T04:15:17.757Z,83.97
2018-04-14T04:16:17.762Z,83.69
2018-04-14T04:17:17.768Z,83.69
2018-04-14T04:18:17.781Z,84.07
2018-04-14T04:19:17.783Z,83.69
2018-04-14T04:20:17.789Z,83.97
2018-04-14T04:21:17.797Z,83.46
2018-04-14T04:22:17.803Z,83.17
2018-04-14T04:23:17.812Z,83.27
2018-04-14T04:24:17.829Z,83.40
2018-04-14T04:25:17.827Z,83.55
2018-04-14T04:26:17.832Z,83.55
2018-04-14T04:27:17.838Z,83.36
2018-04-14T04:28:17.847Z,83.36
2018-04-14T04:29:17.859Z,83.27
2018-04-14T04:30:17.859Z,83.65
2018-04-14T04:31:17.874Z,83.84
2018-04-14T04:32:17.877Z,84.22
2018-04-14T04:33:17.882Z,83.88
2018-04-14T04:34:17.896Z,84.31
2018-04-14T04:35:17.898Z,84.12
2018-04-14T04:36:17.903Z,83.84
2018-04-14T04:37:17.919Z,83.40
2018-04-14T04:38:17.918Z,83.74
2018-04-14T04:39:17.925Z,83.84
2018-04-14T04:40:17.936Z,83.65
2018-04-14T04:41:17.939Z,83.65
2018-04-14T04:42:17.946Z,83.65
2018-04-14T04:43:17.960Z,83.65
2018-04-14T04:44:17.972Z,84.59
2018-04-14T04:45:17.970Z,83.36
2018-04-14T04:46:17.976Z,83.36
2018-04-14T04:47:17.984Z,84.03
2018-04-14T04:48:17.993Z,83.46
2018-04-14T04:49:17.997Z,83.08
2018-04-14T04:50:18.014Z,82.98
2018-04-14T04:51:18.011Z,83.27
2018-04-14T04:52:18.022Z,83.94
2018-04-14T04:53:18.027Z,83.46
2018-04-14T04:54:18.035Z,83.31
2018-04-14T04:55:18.044Z,83.36
2018-04-14T04:56:18.059Z,83.36
2018-04-14T04:57:18.058Z,83.46
2018-04-14T04:58:18.067Z,83.46
2018-04-14T04:59:18.073Z,83.36
2018-04-14T05:00:18.075Z,84.41
2018-04-14T05:01:18.088Z,84.41
2018-04-14T05:02:18.097Z,84.31
2018-04-14T05:03:18.098Z,83.46
2018-04-14T05:04:18.113Z,84.41
2018-04-14T05:05:18.113Z,84.41
2018-04-14T05:06:18.119Z,84.88
2018-04-14T05:07:18.131Z,84.69
2018-04-14T05:08:18.136Z,85.55
2018-04-14T05:09:18.142Z,84.59
2018-04-14T05:10:18.151Z,85.74
2018-04-14T05:11:18.161Z,85.55
2018-04-14T05:12:18.164Z,85.93
2018-04-14T05:13:18.188Z,85.55
2018-04-14T05:14:18.185Z,85.55
2018-04-14T05:15:18.187Z,85.55
2018-04-14T05:16:18.194Z,85.55
2018-04-14T05:17:18.207Z,85.64
2018-04-14T05:18:18.207Z,85.55
2018-04-14T05:19:18.213Z,85.49
2018-04-14T05:20:18.227Z,85.40
2018-04-14T05:21:18.229Z,86.63
2018-04-14T05:22:18.234Z,86.54
2018-04-14T05:23:18.243Z,85.49
2018-04-14T05:24:18.250Z,85.40
2018-04-14T05:25:18.258Z,85.68
2018-04-14T05:26:18.268Z,85.11
2018-04-14T05:27:18.270Z,85.49
2018-04-14T05:28:18.279Z,85.21
2018-04-14T05:29:18.287Z,85.49
2018-04-14T05:30:18.294Z,84.74
2018-04-14T05:31:18.303Z,85.02
2018-04-14T05:32:18.323Z,85.49
2018-04-14T05:33:18.317Z,85.59
2018-04-14T05:34:18.320Z,85.68
2018-04-14T05:35:18.330Z,85.87
2018-04-14T05:36:18.336Z,85.78
2018-04-14T05:37:18.347Z,86.82
2018-04-14T05:38:18.358Z,87.11
2018-04-14T05:39:18.358Z,86.91
2018-04-14T05:40:18.366Z,87.11
2018-04-14T05:41:18.374Z,87.01
2018-04-14T05:42:18.382Z,86.82
2018-04-14T05:43:18.408Z,87.11
2018-04-14T05:44:18.400Z,87.96
2018-04-14T05:45:18.407Z,88.72
2018-04-14T05:46:18.411Z,87.92
2018-04-14T05:47:18.415Z,89.06
2018-04-14T05:48:18.423Z,89.15
2018-04-14T05:49:18.430Z,89.53
2018-04-14T05:50:18.445Z,89.81
2018-04-14T05:51:18.445Z,89.39
2018-04-14T05:52:18.453Z,90.10
2018-04-14T05:53:18.461Z,89.81
2018-04-14T05:54:18.468Z,90.00
2018-04-14T05:55:18.475Z,90.48
2018-04-14T05:56:18.491Z,90.05
2018-04-14T05:57:18.489Z,90.62
2018-04-14T05:58:18.497Z,90.52
2018-04-14T05:59:18.504Z,90.81
2018-04-14T06:00:18.515Z,91.47
2018-04-14T06:01:18.531Z,91.56
2018-04-14T06:02:18.542Z,91.94
2018-04-14T06:03:18.533Z,91.75
2018-04-14T06:04:18.543Z,91.66
2018-04-14T06:05:18.552Z,91.47
2018-04-14T06:06:18.558Z,91.66
2018-04-14T06:07:18.563Z,91.19
2018-04-14T06:08:18.580Z,91.66
2018-04-14T06:09:18.579Z,92.14
2018-04-14T06:10:18.588Z,92.71
2018-04-14T06:11:18.596Z,93.27
2018-04-14T06:12:18.616Z,94.13
2018-04-14T06:13:18.608Z,93.65
2018-04-14T06:14:18.627Z,94.89
2018-04-14T06:15:18.626Z,94.98
2018-04-14T06:16:18.632Z,94.93
2018-04-14T06:17:18.643Z,94.89
2018-04-14T06:18:18.647Z,95.60
2018-04-14T06:19:18.655Z,95.22
2018-04-14T06:20:18.673Z,94.93
2018-04-14T06:21:18.670Z,95.03
2018-04-14T06:22:18.764Z,94.84
2018-04-14T06:23:18.686Z,95.03
2018-04-14T06:24:18.694Z,95.79
2018-04-14T06:25:18.702Z,95.98
2018-04-14T06:26:18.714Z,96.55
2018-04-14T06:27:18.716Z,97.41
2018-04-14T06:28:18.745Z,98.92
2018-04-14T06:29:18.735Z,99.49
2018-04-14T06:30:18.745Z,99.68
2018-04-14T06:31:18.748Z,99.97
2018-04-14T06:32:18.770Z,99.99
2018-04-14T06:33:18.764Z,99.87
2018-04-14T06:34:18.772Z,99.99
2018-04-14T06:35:18.780Z,99.99
2018-04-14T06:36:18.787Z,99.99
2018-04-14T06:37:18.795Z,99.99
2018-04-14T06:38:18.812Z,99.99
2018-04-14T06:39:18.816Z,99.99
2018-04-14T06:40:18.819Z,99.99
2018-04-14T06:41:18.832Z,99.99
2018-04-14T06:42:18.835Z,99.99
2018-04-14T06:43:18.844Z,99.99
2018-04-14T06:44:18.860Z,99.99
2018-04-14T06:45:18.875Z,99.99
2018-04-14T06:46:18.866Z,99.99
2018-04-14T06:47:18.875Z,99.99
2018-04-14T06:48:18.884Z,99.99
2018-04-14T06:49:18.895Z,99.99
2018-04-14T06:50:18.904Z,99.99
2018-04-14T06:51:18.905Z,99.99
2018-04-14T06:52:18.914Z,99.99
2018-04-14T06:53:18.922Z,99.99
2018-04-14T06:54:18.930Z,99.99
2018-04-14T06:55:18.938Z,99.99
2018-04-14T06:56:18.962Z,99.99
2018-04-14T06:57:18.957Z,99.99
2018-04-14T06:58:18.964Z,99.99
2018-04-14T06:59:18.973Z,99.99
2018-04-14T07:00:18.991Z,99.99
2018-04-14T07:01:18.990Z,99.99
2018-04-14T07:02:18.999Z,99.99
2018-04-14T07:03:19.009Z,99.99
2018-04-14T07:04:19.028Z,99.99
2018-04-14T07:05:19.021Z,99.99
2018-04-14T07:06:19.032Z,99.99
2018-04-14T07:07:19.037Z,99.99
2018-04-14T07:08:19.062Z,99.99
2018-04-14T07:09:19.053Z,99.99
2018-04-14T07:10:19.062Z,99.99
2018-04-14T07:11:19.072Z,99.99
2018-04-14T07:12:19.081Z,99.99
2018-04-14T07:13:19.088Z,99.99
2018-04-14T07:14:19.093Z,99.99
2018-04-14T07:15:19.108Z,99.99
2018-04-14T07:16:19.115Z,99.99
2018-04-14T07:17:19.122Z,99.99
2018-04-14T07:18:19.127Z,99.99
2018-04-14T07:19:19.139Z,99.99
2018-04-14T07:20:19.155Z,99.99
2018-04-14T07:21:19.154Z,99.99
2018-04-14T07:22:19.163Z,99.99
2018-04-14T07:23:19.171Z,99.99
2018-04-14T07:24:19.299Z,99.99
2018-04-14T07:25:19.188Z,99.99
2018-04-14T07:26:19.196Z,99.99
2018-04-14T07:27:19.216Z,99.99
2018-04-14T07:28:19.219Z,99.99
2018-04-14T07:29:19.222Z,99.99
2018-04-14T07:30:19.232Z,99.99
2018-04-14T07:31:19.240Z,99.99
2018-04-14T07:32:19.301Z,99.99
2018-04-14T07:33:19.257Z,99.99
2018-04-14T07:34:19.277Z,99.99
2018-04-14T07:35:19.276Z,99.99
2018-04-14T07:36:19.283Z,99.99
2018-04-14T07:37:19.294Z,99.99
2018-04-14T07:38:19.301Z,99.99
2018-04-14T07:39:19.398Z,99.99
2018-04-14T07:40:19.325Z,99.99
2018-04-14T07:41:19.326Z,99.99
2018-04-14T07:42:19.336Z,99.99
2018-04-14T07:43:19.347Z,99.99
2018-04-14T07:44:19.356Z,99.99
2018-04-14T07:45:19.367Z,99.99
2018-04-14T07:46:19.380Z,99.99
2018-04-14T07:47:19.386Z,99.99
2018-04-14T07:48:19.389Z,99.99
2018-04-14T07:49:19.398Z,99.99
2018-04-14T07:50:19.407Z,99.99
2018-04-14T07:51:19.418Z,98.99
2018-04-14T07:52:19.425Z,98.60
2018-04-14T07:53:19.439Z,97.84
2018-04-14T07:54:19.442Z,97.84
2018-04-14T07:55:19.457Z,97.32
2018-04-14T07:56:19.460Z,95.94
2018-04-14T07:57:19.473Z,95.03
2018-04-14T07:58:19.480Z,93.37
2018-04-14T07:59:19.496Z,92.46
2018-04-14T08:00:19.509Z,93.03
2018-04-14T08:01:19.543Z,92.17
2018-04-14T08:02:19.524Z,92.08
2018-04-14T08:03:19.530Z,89.89
2018-04-14T08:04:19.537Z,88.17
2018-04-14T08:05:19.549Z,85.60
2018-04-14T08:06:19.565Z,82.54
2018-04-14T08:07:19.564Z,81.30
2018-04-14T08:08:19.578Z,79.15
2018-04-14T08:09:19.588Z,79.63
2018-04-14T08:10:19.596Z,79.91
2018-04-14T08:11:19.601Z,79.35
2018-04-14T08:12:19.617Z,80.58
2018-04-14T08:13:19.620Z,79.06
2018-04-14T08:14:19.631Z,78.30
2018-04-14T08:15:19.638Z,76.67
2018-04-14T08:16:19.655Z,78.39
2018-04-14T08:17:19.661Z,80.53
2018-04-14T08:18:19.681Z,81.67
2018-04-14T08:19:19.680Z,79.63
2018-04-14T08:20:19.691Z,78.86
2018-04-14T08:21:19.719Z,77.91
2018-04-14T08:22:19.708Z,78.96
2018-04-14T08:23:19.718Z,76.52
2018-04-14T08:24:19.727Z,73.66
2018-04-14T08:25:19.740Z,73.18
2018-04-14T08:26:19.745Z,74.61
2018-04-14T08:27:19.763Z,74.04
2018-04-14T08:28:19.765Z,73.75
2018-04-14T08:29:19.789Z,74.90
2018-04-14T08:30:19.783Z,78.62
2018-04-14T08:31:19.792Z,80.62
2018-04-14T08:32:19.799Z,76.33
2018-04-14T08:33:19.823Z,75.85
2018-04-14T08:34:19.821Z,76.42
2018-04-14T08:35:19.834Z,75.85
2018-04-14T08:36:19.843Z,75.89
2018-04-14T08:37:19.878Z,76.14
2018-04-14T08:38:19.862Z,76.37
2018-04-14T08:39:19.868Z,75.89
2018-04-14T08:40:19.880Z,75.79
2018-04-14T08:41:19.900Z,77.23
2018-04-14T08:42:19.966Z,74.93
2018-04-14T08:43:20.596Z,75.32
2018-04-14T08:44:19.922Z,74.65
2018-04-14T08:45:19.945Z,74.08
2018-04-14T08:46:19.934Z,73.12
2018-04-14T08:47:19.973Z,73.92
2018-04-14T08:48:19.954Z,73.35
2018-04-14T08:49:19.974Z,73.35
2018-04-14T08:50:20.002Z,71.92
2018-04-14T08:51:19.990Z,72.11
2018-04-14T08:52:19.997Z,73.54
2018-04-14T08:53:20.009Z,73.83
2018-04-14T08:54:20.016Z,73.07
2018-04-14T08:55:20.023Z,72.87
2018-04-14T08:56:20.095Z,73.63
2018-04-14T08:57:20.051Z,73.07
2018-04-14T08:58:20.055Z,74.30
2018-04-14T08:59:20.076Z,74.21
2018-04-14T09:00:20.078Z,74.02
2018-04-14T09:01:20.089Z,74.02
2018-04-14T09:02:20.096Z,74.78
2018-04-14T09:03:20.115Z,76.35
2018-04-14T09:04:20.118Z,73.19
2018-04-14T09:05:20.132Z,71.95
2018-04-14T09:06:20.137Z,70.04
2018-04-14T09:07:20.149Z,70.23
2018-04-14T09:08:20.164Z,68.70
2018-04-14T09:09:20.171Z,69.56
2018-04-14T09:10:20.189Z,66.99
2018-04-14T09:11:20.192Z,67.46
2018-04-14T09:12:20.200Z,68.13
2018-04-14T09:13:20.213Z,68.61
2018-04-14T09:14:20.225Z,67.46
2018-04-14T09:15:20.231Z,66.13
2018-04-14T09:16:20.244Z,62.59
2018-04-14T09:17:20.254Z,64.34
2018-04-14T09:18:20.268Z,64.15
2018-04-14T09:19:20.277Z,64.82
2018-04-14T09:20:20.296Z,65.48
2018-04-14T09:21:20.300Z,64.72
2018-04-14T09:22:20.304Z,64.72
2018-04-14T09:23:20.316Z,65.97
2018-04-14T09:24:20.329Z,65.42
2018-04-14T09:25:20.345Z,63.76
2018-04-14T09:26:20.348Z,63.76
2018-04-14T09:27:20.359Z,60.90
2018-04-14T09:28:20.371Z,60.13
2018-04-14T09:29:20.381Z,59.88
2018-04-14T09:30:21.125Z,60.93
2018-04-14T09:31:20.401Z,60.26
2018-04-14T09:32:20.453Z,59.97
2018-04-14T09:33:20.427Z,59.69
2018-04-14T09:34:20.435Z,60.26
2018-04-14T09:35:20.447Z,58.34
2018-04-14T09:36:20.455Z,57.29
2018-04-14T09:37:20.471Z,54.90
2018-04-14T09:38:20.479Z,53.56
2018-04-14T09:39:20.496Z,51.36
2018-04-14T09:40:20.505Z,51.27
2018-04-14T09:41:20.513Z,52.42
2018-04-14T09:42:20.525Z,52.54
2018-04-14T09:43:20.536Z,53.88
2018-04-14T09:44:20.545Z,51.68
2018-04-14T09:45:20.557Z,53.11
2018-04-14T09:46:20.571Z,55.69
2018-04-14T09:47:20.594Z,56.08
2018-04-14T09:48:20.595Z,54.93
2018-04-14T09:49:20.603Z,52.44
2018-04-14T09:50:20.611Z,52.56
2018-04-14T09:51:20.628Z,57.16
2018-04-14T09:52:20.635Z,58.40
2018-04-14T09:53:20.650Z,57.83
2018-04-14T09:54:20.657Z,57.16
2018-04-14T09:55:20.670Z,59.17
2018-04-14T09:56:20.683Z,59.75
2018-04-14T09:57:20.693Z,57.06
2018-04-14T09:58:20.703Z,56.97
2018-04-14T09:59:20.711Z,59.08
2018-04-14T10:00:20.740Z,55.82
2018-04-14T10:01:20.737Z,58.31
2018-04-14T10:02:20.752Z,56.20
2018-04-14T10:03:20.862Z,53.91
2018-04-14T10:04:20.772Z,55.53
2018-04-14T10:05:20.968Z,56.10
2018-04-14T10:06:20.794Z,57.35
2018-04-14T10:07:20.807Z,59.55
2018-04-14T10:08:20.828Z,58.44
2018-04-14T10:09:20.832Z,57.57
2018-04-14T10:10:20.864Z,57.86
2018-04-14T10:11:20.865Z,56.90
2018-04-14T10:12:20.863Z,56.90
2018-04-14T10:13:20.875Z,53.93
2018-04-14T10:14:20.888Z,55.18
2018-04-14T10:15:20.898Z,56.42
2018-04-14T10:16:20.917Z,59.20
2018-04-14T10:17:20.923Z,58.81
2018-04-14T10:18:20.932Z,59.77
2018-04-14T10:19:20.943Z,59.30
2018-04-14T10:20:20.956Z,60.35
2018-04-14T10:21:20.971Z,57.95
2018-04-14T10:22:20.986Z,56.32
2018-04-14T10:23:20.994Z,59.58
2018-04-14T10:24:21.010Z,57.28
2018-04-14T10:25:21.017Z,58.72
2018-04-14T10:26:21.026Z,60.86
2018-04-14T10:27:21.041Z,56.07
2018-04-14T10:28:21.053Z,56.07
2018-04-14T10:29:21.073Z,57.89
2018-04-14T10:30:21.074Z,56.45
2018-04-14T10:31:21.088Z,56.19
2018-04-14T10:32:21.165Z,55.04
2018-04-14T10:33:21.112Z,52.36
2018-04-14T10:34:21.122Z,52.64
2018-04-14T10:35:21.137Z,52.09
2018-04-14T10:36:21.158Z,51.71
2018-04-14T10:37:21.166Z,50.75
2018-04-14T10:38:21.179Z,48.57
2018-04-14T10:39:21.183Z,48.09
2018-04-14T10:40:21.198Z,47.03
2018-04-14T10:41:21.209Z,48.47
2018-04-14T10:42:21.226Z,47.80
2018-04-14T10:43:21.235Z,48.66
2018-04-14T10:44:21.258Z,48.66
2018-04-14T10:45:21.263Z,48.09
2018-04-14T10:46:21.274Z,48.18
2018-04-14T10:47:21.302Z,49.15
2018-04-14T10:48:21.300Z,45.23
2018-04-14T10:49:21.315Z,45.04
2018-04-14T10:50:21.325Z,45.23
2018-04-14T10:51:21.338Z,45.83
2018-04-14T10:52:21.356Z,46.50
2018-04-14T10:53:21.376Z,47.75
2018-04-14T10:54:21.381Z,48.71
2018-04-14T10:55:21.392Z,48.43
2018-04-14T10:56:21.405Z,45.95
2018-04-14T10:57:21.418Z,46.62
2018-04-14T10:58:21.429Z,44.51
2018-04-14T10:59:21.450Z,44.45
2018-04-14T11:00:21.458Z,42.53
2018-04-14T11:01:21.482Z,40.53
2018-04-14T11:02:21.490Z,40.19
2018-04-14T11:03:21.502Z,39.24
2018-04-14T11:04:21.514Z,41.77
2018-04-14T11:05:21.539Z,39.86
2018-04-14T11:06:21.547Z,39.47
2018-04-14T11:07:21.562Z,37.17
2018-04-14T11:08:21.580Z,36.21
2018-04-14T11:09:21.597Z,38.06
2018-04-14T11:10:21.612Z,37.98
2018-04-14T11:11:21.646Z,38.48
2018-04-14T11:12:21.650Z,39.32
2018-04-14T11:13:21.669Z,40.53
2018-04-14T11:14:21.683Z,41.67
2018-04-14T11:15:21.707Z,42.25
2018-04-14T11:16:21.720Z,42.80
2018-04-14T11:17:21.738Z,42.42
2018-04-14T11:18:28.929Z,41.92
2018-04-14T11:20:25.810Z,43.48
2018-04-14T11:21:25.800Z,41.65
2018-04-14T11:23:29.841Z,43.77
2018-04-14T11:24:29.844Z,40.59
2018-04-14T11:26:33.883Z,39.62
2018-04-14T11:27:33.873Z,41.67
2018-04-14T11:29:37.896Z,40.03
2018-04-14T11:30:37.907Z,38.29
2018-04-14T11:32:43.174Z,39.36
2018-04-14T11:33:43.168Z,37.98
2018-04-14T11:35:36.147Z,38.10
2018-04-14T11:36:36.134Z,38.97
2018-04-14T11:38:40.177Z,39.54
2018-04-14T11:39:40.186Z,41.96
2018-04-14T11:41:44.232Z,42.23
2018-04-14T11:42:44.226Z,43.10
2018-04-14T11:44:48.244Z,42.21
2018-04-14T11:45:48.255Z,42.69
2018-04-14T11:47:52.284Z,44.81
2018-04-14T11:48:52.277Z,44.04
2018-04-14T11:49:52.296Z,44.62
2018-04-14T11:50:52.307Z,44.35
2018-04-14T11:51:52.321Z,44.95
2018-04-14T11:52:52.339Z,43.60
2018-04-14T11:53:52.351Z,41.96
2018-04-14T11:54:52.368Z,43.70
2018-04-14T11:55:52.384Z,42.73
2018-04-14T11:56:52.397Z,43.70
2018-04-14T11:57:52.415Z,43.60
2018-04-14T11:58:52.431Z,40.72
2018-04-14T11:59:52.444Z,41.11
2018-04-14T12:00:52.776Z,41.02
2018-04-14T12:01:52.757Z,40.55
2018-04-14T12:02:52.488Z,41.81
2018-04-14T12:03:52.502Z,39.87
2018-04-14T12:04:52.519Z,35.14
2018-04-14T12:05:52.533Z,34.18
2018-04-14T12:06:52.545Z,35.63
2018-04-14T12:07:52.562Z,34.97
2018-04-14T12:08:52.582Z,33.44
2018-04-14T12:09:52.629Z,33.34
2018-04-14T12:10:52.607Z,32.01
2018-04-14T12:11:52.628Z,32.18
2018-04-14T12:12:52.638Z,31.80
2018-04-14T12:13:52.682Z,30.91
2018-04-14T12:14:52.667Z,29.56
2018-04-14T12:15:52.688Z,29.77
2018-04-14T12:16:52.697Z,31.04
2018-04-14T12:17:53.442Z,31.63
2018-04-14T12:18:52.730Z,30.39
2018-04-14T12:19:52.743Z,30.31
2018-04-14T12:20:52.764Z,29.22
2018-04-14T12:21:52.772Z,28.44
2018-04-14T12:22:52.799Z,28.56
2018-04-14T12:23:52.801Z,28.76
2018-04-14T12:24:52.823Z,29.64
2018-04-14T12:25:52.837Z,28.40
2018-04-14T12:26:52.850Z,28.61
2018-04-14T12:27:52.864Z,31.68
2018-04-14T12:28:52.877Z,30.34
2018-04-14T12:29:52.894Z,31.04
2018-04-14T12:30:52.911Z,30.58
2018-04-14T12:31:52.928Z,28.85
2018-04-14T12:32:52.944Z,28.93
2018-04-14T12:33:52.957Z,27.56
2018-04-14T12:34:52.988Z,25.95
2018-04-14T12:35:52.991Z,28.79
2018-04-14T12:36:53.029Z,29.00
2018-04-14T12:37:53.024Z,29.05
2018-04-14T12:38:53.041Z,27.69
2018-04-14T12:39:53.057Z,29.29
2018-04-14T12:40:53.076Z,27.25
2018-04-14T12:41:53.164Z,27.80
2018-04-14T12:42:53.127Z,28.59
2018-04-14T12:43:53.137Z,28.80
2018-04-14T12:44:53.155Z,26.69
2018-04-14T12:45:53.173Z,27.47
2018-04-14T12:46:53.232Z,25.52
2018-04-14T12:47:53.214Z,24.46
2018-04-14T12:48:53.236Z,25.36
2018-04-14T12:49:53.255Z,24.37
2018-04-14T12:50:53.281Z,24.19
2018-04-14T12:51:53.310Z,25.29
2018-04-14T12:52:53.327Z,23.94
2018-04-14T12:53:53.347Z,23.43
2018-04-14T12:54:53.368Z,24.15
2018-04-14T12:55:53.391Z,25.71
2018-04-14T12:56:53.416Z,25.43
2018-04-14T12:57:53.445Z,24.79
2018-04-14T12:58:53.465Z,25.95
2018-04-14T12:59:53.487Z,24.60
2018-04-14T13:00:53.511Z,22.17
2018-04-14T13:01:53.535Z,21.50
2018-04-14T13:02:53.753Z,20.53